createdAt,value
2019-03-28T00:01:51.820Z,3.84
2019-03-28T00:04:23.076Z,3.81
2019-03-28T00:06:54.293Z,3.88
2019-03-28T00:09:25.487Z,3.84
2019-03-28T00:11:57.107Z,3.87
2019-03-28T00:14:29.114Z,4.06
2019-03-28T00:17:00.346Z,4.05
2019-03-28T00:19:31.531Z,3.97
2019-03-28T00:22:05.528Z,3.99
2019-03-28T00:24:57.394Z,3.99
2019-03-28T00:27:28.984Z,3.94
2019-03-28T00:30:00.042Z,3.74
2019-03-28T00:32:31.305Z,3.77
2019-03-28T00:35:02.550Z,3.67
2019-03-28T00:37:33.716Z,3.72
2019-03-28T00:40:05.267Z,3.63
2019-03-28T00:42:36.573Z,3.51
2019-03-28T00:45:08.703Z,3.41
2019-03-28T00:47:39.888Z,3.44
2019-03-28T00:50:11.781Z,3.44
2019-03-28T00:52:43.037Z,3.42
2019-03-28T00:55:14.620Z,3.46
2019-03-28T00:57:45.841Z,3.49
2019-03-28T01:00:17.928Z,3.52
2019-03-28T01:02:49.139Z,3.53
2019-03-28T01:05:20.275Z,3.55
2019-03-28T01:07:51.616Z,3.60
2019-03-28T01:10:22.862Z,3.53
2019-03-28T01:12:54.078Z,3.48
2019-03-28T01:15:25.289Z,3.51
2019-03-28T01:17:56.518Z,3.43
2019-03-28T01:20:28.012Z,3.50
2019-03-28T01:22:59.190Z,3.42
2019-03-28T01:25:30.314Z,3.45
2019-03-28T01:28:01.457Z,3.43
2019-03-28T01:30:33.044Z,3.44
2019-03-28T01:33:04.283Z,3.39
2019-03-28T01:35:35.586Z,3.31
2019-03-28T01:38:06.776Z,3.26
2019-03-28T01:40:38.340Z,3.17
2019-03-28T01:43:09.468Z,3.01
2019-03-28T01:45:40.678Z,2.94
2019-03-28T01:48:13.096Z,2.94
2019-03-28T01:50:44.330Z,2.76
2019-03-28T01:53:15.635Z,2.77
2019-03-28T01:55:46.927Z,2.74
2019-03-28T01:58:18.172Z,2.80
2019-03-28T02:00:49.315Z,2.78
2019-03-28T02:03:20.561Z,2.57
2019-03-28T02:05:51.671Z,2.56
2019-03-28T02:08:24.853Z,2.45
2019-03-28T02:10:55.886Z,2.52
2019-03-28T02:13:27.296Z,2.47
2019-03-28T02:15:58.552Z,2.42
2019-03-28T02:18:30.302Z,2.37
2019-03-28T02:21:01.490Z,2.25
2019-03-28T02:23:32.784Z,2.20
2019-03-28T02:26:03.959Z,2.15
2019-03-28T02:28:35.276Z,2.08
2019-03-28T02:31:06.399Z,1.97
2019-03-28T02:33:37.652Z,1.90
2019-03-28T02:36:08.932Z,1.87
2019-03-28T02:38:40.151Z,1.83
2019-03-28T02:41:11.378Z,1.82
2019-03-28T02:43:42.844Z,1.77
2019-03-28T02:46:14.095Z,1.76
2019-03-28T02:48:45.350Z,1.81
2019-03-28T02:51:16.597Z,1.73
2019-03-28T02:53:48.191Z,1.70
2019-03-28T02:56:19.437Z,1.73
2019-03-28T02:58:51.027Z,1.73
2019-03-28T03:01:22.260Z,1.66
2019-03-28T03:03:53.481Z,1.70
2019-03-28T03:06:24.651Z,1.73
2019-03-28T03:08:56.002Z,1.72
2019-03-28T03:11:27.237Z,1.71
2019-03-28T03:13:58.369Z,1.77
2019-03-28T03:16:30.049Z,1.81
2019-03-28T03:19:01.533Z,1.85
2019-03-28T03:21:32.758Z,1.90
2019-03-28T03:24:04.029Z,1.89
2019-03-28T03:26:35.622Z,1.92
2019-03-28T03:29:10.115Z,1.94
2019-03-28T03:31:41.326Z,1.95
2019-03-28T03:34:12.630Z,1.98
2019-03-28T03:36:43.965Z,1.99
2019-03-28T03:39:15.314Z,1.99
2019-03-28T03:41:46.603Z,1.98
2019-03-28T03:44:17.759Z,2.02
2019-03-28T03:46:49.041Z,2.08
2019-03-28T03:49:21.726Z,2.18
2019-03-28T03:51:52.886Z,2.09
2019-03-28T03:54:23.980Z,2.03
2019-03-28T03:56:55.465Z,2.07
2019-03-28T03:59:27.052Z,2.06
2019-03-28T04:01:58.349Z,2.01
2019-03-28T04:04:29.546Z,2.01
2019-03-28T04:07:01.394Z,2.08
2019-03-28T04:09:32.548Z,2.07
2019-03-28T04:12:03.833Z,1.98
2019-03-28T04:14:35.375Z,1.86
2019-03-28T04:17:07.174Z,1.88
2019-03-28T04:19:38.396Z,1.91
2019-03-28T04:22:10.080Z,1.96
2019-03-28T04:24:41.658Z,1.96
2019-03-28T04:27:12.924Z,1.94
2019-03-28T04:29:44.048Z,1.87
2019-03-28T04:32:15.242Z,2.00
2019-03-28T04:34:46.365Z,2.10
2019-03-28T04:37:17.442Z,2.11
2019-03-28T04:39:48.604Z,2.07
2019-03-28T04:42:19.753Z,2.05
2019-03-28T04:44:51.107Z,2.00
2019-03-28T04:47:22.332Z,2.02
2019-03-28T04:49:53.523Z,2.01
2019-03-28T04:52:24.800Z,2.05
2019-03-28T04:54:56.033Z,2.13
2019-03-28T04:57:27.269Z,2.13
2019-03-28T04:59:58.539Z,2.15
2019-03-28T05:02:29.781Z,2.23
2019-03-28T05:05:01.073Z,2.23
2019-03-28T05:07:32.203Z,2.22
2019-03-28T05:10:03.551Z,2.24
2019-03-28T05:12:34.801Z,2.27
2019-03-28T05:15:07.393Z,2.33
2019-03-28T05:17:38.592Z,2.38
2019-03-28T05:20:13.059Z,2.39
2019-03-28T05:22:43.056Z,2.33
2019-03-28T05:25:14.540Z,2.40
2019-03-28T05:27:45.748Z,2.41
2019-03-28T05:30:17.573Z,2.56
2019-03-28T05:32:48.993Z,2.58
2019-03-28T05:35:20.579Z,2.55
2019-03-28T05:37:51.835Z,2.38
2019-03-28T05:40:23.092Z,2.65
2019-03-28T05:42:54.451Z,2.72
2019-03-28T05:45:25.746Z,2.76
2019-03-28T05:48:00.090Z,2.74
2019-03-28T05:50:30.229Z,2.80
2019-03-28T05:53:01.425Z,2.87
2019-03-28T05:55:32.635Z,2.90
2019-03-28T05:58:04.212Z,2.91
2019-03-28T06:00:38.794Z,2.97
2019-03-28T06:03:08.731Z,3.04
2019-03-28T06:05:40.554Z,3.10
2019-03-28T06:08:11.702Z,3.14
2019-03-28T06:10:42.828Z,3.21
2019-03-28T06:13:14.110Z,3.28
2019-03-28T06:15:45.483Z,3.35
2019-03-28T06:18:16.670Z,3.32
2019-03-28T06:20:48.014Z,3.36
2019-03-28T06:23:19.299Z,3.33
2019-03-28T06:25:50.649Z,3.36
2019-03-28T06:28:21.999Z,3.41
2019-03-28T06:30:56.048Z,3.53
2019-03-28T06:33:27.257Z,3.62
2019-03-28T06:35:58.525Z,3.68
2019-03-28T06:38:29.832Z,3.73
2019-03-28T06:41:01.458Z,3.92
2019-03-28T06:43:33.564Z,3.93
2019-03-28T06:46:04.840Z,3.99
2019-03-28T06:48:36.034Z,3.95
2019-03-28T06:51:07.484Z,4.08
2019-03-28T06:53:38.685Z,4.21
2019-03-28T06:56:09.906Z,4.24
2019-03-28T06:58:42.879Z,4.42
2019-03-28T07:01:14.524Z,4.34
2019-03-28T07:03:47.486Z,4.50
2019-03-28T07:06:18.857Z,4.39
2019-03-28T07:08:50.125Z,4.86
2019-03-28T07:11:21.763Z,4.65
2019-03-28T07:13:53.145Z,4.87
2019-03-28T07:16:25.664Z,4.94
2019-03-28T07:18:56.856Z,5.19
2019-03-28T07:21:28.050Z,5.41
2019-03-28T07:23:59.815Z,5.61
2019-03-28T07:26:31.146Z,5.56
2019-03-28T07:29:02.934Z,5.78
2019-03-28T07:31:35.567Z,5.74
2019-03-28T07:34:07.090Z,5.76
2019-03-28T07:36:39.383Z,6.12
2019-03-28T07:39:11.242Z,6.24
2019-03-28T07:41:42.805Z,6.22
2019-03-28T07:44:14.876Z,6.24
2019-03-28T07:46:47.741Z,6.21
2019-03-28T07:49:20.034Z,6.31
2019-03-28T07:51:51.294Z,6.15
2019-03-28T07:54:24.344Z,6.41
2019-03-28T07:56:55.581Z,6.31
2019-03-28T07:59:26.815Z,6.50
2019-03-28T08:01:58.070Z,6.35
2019-03-28T08:04:29.302Z,6.56
2019-03-28T08:07:00.556Z,6.67
2019-03-28T08:09:36.738Z,6.43
2019-03-28T08:12:05.057Z,6.80
2019-03-28T08:14:36.362Z,6.83
2019-03-28T08:17:08.536Z,7.01
2019-03-28T08:19:41.554Z,7.17
2019-03-28T08:22:12.605Z,7.15
2019-03-28T08:24:43.777Z,6.95
2019-03-28T08:27:15.043Z,7.05
2019-03-28T08:29:46.240Z,7.28
2019-03-28T08:32:20.554Z,7.03
2019-03-28T08:34:51.957Z,7.23
2019-03-28T08:37:23.270Z,7.44
2019-03-28T08:39:55.700Z,7.36
2019-03-28T08:42:27.227Z,7.76
2019-03-28T08:44:58.419Z,8.07
2019-03-28T08:47:29.961Z,8.89
2019-03-28T08:50:01.225Z,9.64
2019-03-28T08:52:32.485Z,9.97
2019-03-28T08:55:04.204Z,9.65
2019-03-28T08:57:35.502Z,10.08
2019-03-28T09:00:09.383Z,9.76
2019-03-28T09:02:39.271Z,9.72
2019-03-28T09:05:11.062Z,10.24
2019-03-28T09:07:42.529Z,10.32
2019-03-28T09:10:13.942Z,9.93
2019-03-28T09:12:45.168Z,10.24
2019-03-28T09:15:16.689Z,10.83
2019-03-28T09:17:47.907Z,11.57
2019-03-28T09:20:19.375Z,11.86
2019-03-28T09:22:51.942Z,11.44
2019-03-28T09:25:23.157Z,11.29
2019-03-28T09:27:54.469Z,11.28
2019-03-28T09:30:48.086Z,11.41
2019-03-28T09:33:10.943Z,11.20
2019-03-28T09:35:42.180Z,11.39
2019-03-28T09:38:13.756Z,11.77
2019-03-28T09:40:44.966Z,12.06
2019-03-28T09:43:16.177Z,11.78
2019-03-28T09:45:47.473Z,11.55
2019-03-28T09:48:18.780Z,11.48
2019-03-28T09:50:50.004Z,11.34
2019-03-28T09:53:21.332Z,11.82
2019-03-28T09:55:52.605Z,11.70
2019-03-28T09:58:23.773Z,11.41
2019-03-28T10:01:02.917Z,11.89
2019-03-28T10:03:29.692Z,11.53
2019-03-28T10:06:00.888Z,12.14
2019-03-28T10:08:32.160Z,12.05
2019-03-28T10:11:03.418Z,12.28
2019-03-28T10:13:34.611Z,11.83
2019-03-28T10:16:06.084Z,11.97
2019-03-28T10:18:37.291Z,12.02
2019-03-28T10:21:08.669Z,11.85
2019-03-28T10:23:40.074Z,12.19
2019-03-28T10:26:11.186Z,12.22
2019-03-28T10:28:42.413Z,12.09
2019-03-28T10:31:16.608Z,11.85
2019-03-28T10:33:47.223Z,11.71
2019-03-28T10:36:18.765Z,11.55
2019-03-28T10:38:50.013Z,11.88
2019-03-28T10:41:21.497Z,11.81
2019-03-28T10:43:52.737Z,12.12
2019-03-28T10:46:23.984Z,11.81
2019-03-28T10:48:55.121Z,12.08
2019-03-28T10:51:26.367Z,12.52
2019-03-28T10:53:57.819Z,13.16
2019-03-28T10:56:29.005Z,12.76
2019-03-28T10:59:00.286Z,12.76
2019-03-28T11:01:47.611Z,12.75
2019-03-28T11:04:04.559Z,13.05
2019-03-28T11:06:35.674Z,12.67
2019-03-28T11:09:08.812Z,12.64
2019-03-28T11:11:39.987Z,12.63
2019-03-28T11:14:11.486Z,12.73
2019-03-28T11:16:42.728Z,12.83
2019-03-28T11:19:15.723Z,12.60
2019-03-28T11:21:47.021Z,12.58
2019-03-28T11:24:18.205Z,12.44
2019-03-28T11:26:49.754Z,12.62
2019-03-28T11:29:21.009Z,12.74
2019-03-28T11:31:52.744Z,13.04
2019-03-28T11:34:24.040Z,12.90
2019-03-28T11:36:56.010Z,12.62
2019-03-28T11:39:27.539Z,12.64
2019-03-28T11:42:00.517Z,12.89
2019-03-28T11:44:31.802Z,12.60
2019-03-28T11:47:03.128Z,12.64
2019-03-28T11:49:34.388Z,12.87
2019-03-28T11:52:05.724Z,12.71
2019-03-28T11:54:36.936Z,12.50
2019-03-28T11:57:08.222Z,12.45
2019-03-28T11:59:39.757Z,12.68
2019-03-28T12:02:19.751Z,12.71
2019-03-28T12:04:43.968Z,12.90
2019-03-28T12:07:15.209Z,13.05
2019-03-28T12:09:46.456Z,13.24
2019-03-28T12:12:17.638Z,13.41
2019-03-28T12:14:48.936Z,12.98
2019-03-28T12:17:20.492Z,13.01
2019-03-28T12:19:51.752Z,13.19
2019-03-28T12:22:22.902Z,12.98
2019-03-28T12:24:54.140Z,13.09
2019-03-28T12:27:25.441Z,13.27
2019-03-28T12:29:56.565Z,13.12
2019-03-28T12:32:27.787Z,13.08
2019-03-28T12:34:58.978Z,13.06
2019-03-28T12:37:30.080Z,12.98
2019-03-28T12:40:01.311Z,13.25
2019-03-28T12:42:32.568Z,13.07
2019-03-28T12:45:03.895Z,13.06
2019-03-28T12:47:42.193Z,13.18
2019-03-28T12:50:10.853Z,13.05
2019-03-28T12:52:41.993Z,13.38
2019-03-28T12:55:13.440Z,13.14
2019-03-28T12:57:44.670Z,13.26
2019-03-28T13:00:16.187Z,13.23
2019-03-28T13:02:47.295Z,13.18
2019-03-28T13:05:18.642Z,13.38
2019-03-28T13:07:49.895Z,13.82
2019-03-28T13:10:21.149Z,13.87
2019-03-28T13:12:52.393Z,13.55
2019-03-28T13:15:23.802Z,13.84
2019-03-28T13:17:55.113Z,14.00
2019-03-28T13:20:27.758Z,14.20
2019-03-28T13:22:58.930Z,14.21
2019-03-28T13:25:30.478Z,13.92
2019-03-28T13:28:02.713Z,13.72
2019-03-28T13:30:34.970Z,13.78
2019-03-28T13:33:06.725Z,13.68
2019-03-28T13:35:37.934Z,14.00
2019-03-28T13:38:09.148Z,14.11
2019-03-28T13:40:40.380Z,13.94
2019-03-28T13:43:11.503Z,14.05
2019-03-28T13:45:43.413Z,13.92
2019-03-28T13:48:14.645Z,14.17
2019-03-28T13:50:46.177Z,13.97
2019-03-28T13:53:17.263Z,13.91
2019-03-28T13:55:48.429Z,13.71
2019-03-28T13:58:20.459Z,14.00
2019-03-28T14:00:54.419Z,14.04
2019-03-28T14:03:24.894Z,13.94
2019-03-28T14:05:56.065Z,13.76
2019-03-28T14:08:28.732Z,13.65
2019-03-28T14:10:59.912Z,14.06
2019-03-28T14:13:31.765Z,13.94
2019-03-28T14:16:02.950Z,13.98
2019-03-28T14:18:34.228Z,13.85
2019-03-28T14:21:05.467Z,13.99
2019-03-28T14:23:36.676Z,13.93
2019-03-28T14:26:07.905Z,13.74
2019-03-28T14:28:39.374Z,13.66
2019-03-28T14:31:10.834Z,13.63
2019-03-28T14:33:42.163Z,13.73
2019-03-28T14:36:14.050Z,13.78
2019-03-28T14:38:45.636Z,13.94
2019-03-28T14:41:16.909Z,13.88
2019-03-28T14:43:48.112Z,14.05
2019-03-28T14:46:19.316Z,14.36
2019-03-28T14:48:50.675Z,14.49
2019-03-28T14:51:21.925Z,14.21
2019-03-28T14:53:53.338Z,14.25
2019-03-28T14:56:25.001Z,13.99
2019-03-28T14:58:59.011Z,13.93
2019-03-28T15:01:30.664Z,13.99
2019-03-28T15:04:02.172Z,13.91
2019-03-28T15:06:33.492Z,14.01
2019-03-28T15:09:05.972Z,14.04
2019-03-28T15:11:37.241Z,13.90
2019-03-28T15:14:08.407Z,13.97
2019-03-28T15:16:39.898Z,13.89
2019-03-28T15:19:11.521Z,13.78
2019-03-28T15:21:42.718Z,13.70
2019-03-28T15:24:13.876Z,13.79
2019-03-28T15:26:45.195Z,13.97
2019-03-28T15:29:16.803Z,13.88
2019-03-28T15:31:48.400Z,13.77
2019-03-28T15:34:19.608Z,13.76
2019-03-28T15:36:51.148Z,13.75
2019-03-28T15:39:22.467Z,13.81
2019-03-28T15:41:54.149Z,13.74
2019-03-28T15:44:25.318Z,13.71
2019-03-28T15:46:56.490Z,13.82
2019-03-28T15:49:27.930Z,13.69
2019-03-28T15:51:59.475Z,13.67
2019-03-28T15:54:30.663Z,13.67
2019-03-28T15:57:01.944Z,13.71
2019-03-28T15:59:33.112Z,13.63
2019-03-28T16:02:04.664Z,13.67
2019-03-28T16:04:36.225Z,13.66
2019-03-28T16:07:07.815Z,13.64
2019-03-28T16:09:39.214Z,13.66
2019-03-28T16:12:10.508Z,13.73
2019-03-28T16:14:42.213Z,13.65
2019-03-28T16:17:13.557Z,13.60
2019-03-28T16:19:45.213Z,13.59
2019-03-28T16:22:16.519Z,13.59
2019-03-28T16:24:47.778Z,13.53
2019-03-28T16:27:19.569Z,13.62
2019-03-28T16:29:54.218Z,13.46
2019-03-28T16:32:24.184Z,13.54
2019-03-28T16:34:55.403Z,13.50
2019-03-28T16:37:27.702Z,13.46
2019-03-28T16:39:59.213Z,13.35
2019-03-28T16:42:30.415Z,13.38
2019-03-28T16:45:01.591Z,13.34
2019-03-28T16:47:33.341Z,13.35
2019-03-28T16:50:08.206Z,13.32
2019-03-28T16:52:39.471Z,13.32
2019-03-28T16:55:10.673Z,13.25
2019-03-28T16:57:42.618Z,13.24
2019-03-28T17:00:15.013Z,13.29
2019-03-28T17:02:46.728Z,13.24
2019-03-28T17:05:17.992Z,13.19
2019-03-28T17:07:51.634Z,13.16
2019-03-28T17:10:46.800Z,13.14
2019-03-28T17:13:18.745Z,13.15
2019-03-28T17:15:51.030Z,13.06
2019-03-28T17:18:22.729Z,13.08
2019-03-28T17:20:53.942Z,13.01
2019-03-28T17:23:25.245Z,13.02
2019-03-28T17:25:56.813Z,13.03
2019-03-28T17:28:28.027Z,12.92
2019-03-28T17:30:59.390Z,12.94
2019-03-28T17:33:31.909Z,12.90
2019-03-28T17:36:03.514Z,12.89
2019-03-28T17:38:34.659Z,12.85
2019-03-28T17:41:06.626Z,12.83
2019-03-28T17:43:38.076Z,12.81
2019-03-28T17:46:12.175Z,12.76
2019-03-28T17:48:42.312Z,12.78
2019-03-28T17:51:13.849Z,12.75
2019-03-28T17:53:45.692Z,12.75
2019-03-28T17:56:17.327Z,12.75
2019-03-28T17:58:48.578Z,12.73
2019-03-28T18:01:20.420Z,12.71
2019-03-28T18:03:51.751Z,12.72
2019-03-28T18:06:23.025Z,12.65
2019-03-28T18:08:55.340Z,12.62
2019-03-28T18:11:26.967Z,12.62
2019-03-28T18:13:58.581Z,12.51
2019-03-28T18:16:29.822Z,12.49
2019-03-28T18:19:01.319Z,12.49
2019-03-28T18:21:32.904Z,12.42
2019-03-28T18:24:04.642Z,12.40
2019-03-28T18:26:35.934Z,12.36
2019-03-28T18:29:07.272Z,12.39
2019-03-28T18:31:49.654Z,12.37
2019-03-28T18:34:12.672Z,12.34
2019-03-28T18:36:47.145Z,12.32
2019-03-28T18:39:17.172Z,12.34
2019-03-28T18:41:48.445Z,12.33
2019-03-28T18:44:19.680Z,12.33
2019-03-28T18:46:51.775Z,12.32
2019-03-28T18:49:23.375Z,12.26
2019-03-28T18:51:54.610Z,12.23
2019-03-28T18:54:25.902Z,12.19
2019-03-28T18:56:57.273Z,12.16
2019-03-28T18:59:28.717Z,12.18
2019-03-28T19:01:59.852Z,12.09
2019-03-28T19:04:31.129Z,12.10
2019-03-28T19:07:02.299Z,12.04
2019-03-28T19:09:33.637Z,12.06
2019-03-28T19:12:04.710Z,11.99
2019-03-28T19:14:35.960Z,11.97
2019-03-28T19:17:07.842Z,11.99
2019-03-28T19:19:39.894Z,11.93
2019-03-28T19:22:11.150Z,11.93
2019-03-28T19:24:42.795Z,11.90
2019-03-28T19:27:14.494Z,11.88
2019-03-28T19:29:46.036Z,11.84
2019-03-28T19:32:17.251Z,11.85
2019-03-28T19:34:48.570Z,11.78
2019-03-28T19:37:22.722Z,11.73
2019-03-28T19:39:52.818Z,11.69
2019-03-28T19:42:24.123Z,11.68
2019-03-28T19:44:55.738Z,11.64
2019-03-28T19:47:28.556Z,11.60
2019-03-28T19:49:59.975Z,11.55
2019-03-28T19:52:31.348Z,11.55
2019-03-28T19:55:02.810Z,11.53
2019-03-28T19:57:33.947Z,11.44
2019-03-28T20:00:05.674Z,11.41
2019-03-28T20:02:37.519Z,11.34
2019-03-28T20:05:09.311Z,11.28
2019-03-28T20:07:40.638Z,11.23
2019-03-28T20:10:16.635Z,11.23
2019-03-28T20:12:44.797Z,11.21
2019-03-28T20:15:15.975Z,11.17
2019-03-28T20:17:48.063Z,11.18
2019-03-28T20:20:19.481Z,11.17
2019-03-28T20:22:50.640Z,11.13
2019-03-28T20:25:21.902Z,11.14
2019-03-28T20:27:53.112Z,11.15
2019-03-28T20:30:24.919Z,11.16
2019-03-28T20:32:56.208Z,11.21
2019-03-28T20:35:27.340Z,11.14
2019-03-28T20:37:58.586Z,11.08
2019-03-28T20:40:29.934Z,11.05
2019-03-28T20:43:01.240Z,10.95
2019-03-28T20:45:32.615Z,10.97
2019-03-28T20:48:03.955Z,10.94
2019-03-28T20:50:35.249Z,10.95
2019-03-28T20:53:06.460Z,10.94
2019-03-28T20:55:38.093Z,10.88
2019-03-28T20:58:09.851Z,10.80
2019-03-28T21:00:46.794Z,10.77
2019-03-28T21:03:18.633Z,10.76
2019-03-28T21:05:49.958Z,10.64
2019-03-28T21:08:21.100Z,10.62
2019-03-28T21:10:52.741Z,10.54
2019-03-28T21:13:23.984Z,10.50
2019-03-28T21:15:55.210Z,10.49
2019-03-28T21:18:26.912Z,10.43
2019-03-28T21:20:58.235Z,10.42
2019-03-28T21:23:29.441Z,10.34
2019-03-28T21:26:01.189Z,10.32
2019-03-28T21:28:32.367Z,10.23
2019-03-28T21:31:03.865Z,10.17
2019-03-28T21:33:36.191Z,10.06
2019-03-28T21:36:07.470Z,9.98
2019-03-28T21:38:38.679Z,9.93
2019-03-28T21:41:09.931Z,9.79
2019-03-28T21:43:42.813Z,9.75
2019-03-28T21:46:15.195Z,9.76
2019-03-28T21:48:46.485Z,9.62
2019-03-28T21:51:20.052Z,9.55
2019-03-28T21:53:50.628Z,9.51
2019-03-28T21:56:22.657Z,9.43
2019-03-28T21:58:55.326Z,9.37
2019-03-28T22:01:26.635Z,9.30
2019-03-28T22:03:58.497Z,9.27
2019-03-28T22:06:42.316Z,9.22
2019-03-28T22:09:04.353Z,9.19
2019-03-28T22:11:36.513Z,9.11
2019-03-28T22:14:07.734Z,9.04
2019-03-28T22:16:39.587Z,9.01
2019-03-28T22:19:10.723Z,8.97
2019-03-28T22:21:42.779Z,8.98
2019-03-28T22:24:14.085Z,8.93
2019-03-28T22:26:46.361Z,8.86
2019-03-28T22:29:17.815Z,8.76
2019-03-28T22:31:49.160Z,8.49
2019-03-28T22:34:20.534Z,8.40
2019-03-28T22:36:57.433Z,8.36
2019-03-28T22:39:24.792Z,8.23
2019-03-28T22:41:56.029Z,8.25
2019-03-28T22:44:27.405Z,8.26
2019-03-28T22:46:58.639Z,8.21
2019-03-28T22:49:30.095Z,8.29
2019-03-28T22:52:01.733Z,8.32
2019-03-28T22:54:33.017Z,8.22
2019-03-28T22:57:04.288Z,8.12
2019-03-28T22:59:35.557Z,8.13
2019-03-28T23:02:06.963Z,8.08
2019-03-28T23:04:39.347Z,8.12
2019-03-28T23:07:11.811Z,8.10
2019-03-28T23:09:43.204Z,8.12
2019-03-28T23:12:15.659Z,8.04
2019-03-28T23:14:46.914Z,7.98
2019-03-28T23:17:18.120Z,8.00
2019-03-28T23:19:49.367Z,8.05
2019-03-28T23:22:20.868Z,8.05
2019-03-28T23:24:52.133Z,8.02
2019-03-28T23:27:23.432Z,7.94
2019-03-28T23:29:55.054Z,7.91
2019-03-28T23:32:26.281Z,7.84
2019-03-28T23:34:57.806Z,7.87
2019-03-28T23:37:29.316Z,7.85
2019-03-28T23:40:00.780Z,7.85
2019-03-28T23:42:32.019Z,7.82
2019-03-28T23:45:03.257Z,7.72
2019-03-28T23:47:34.473Z,7.71
2019-03-28T23:50:06.975Z,7.63
2019-03-28T23:52:38.306Z,7.55
2019-03-28T23:55:09.931Z,7.56
2019-03-28T23:57:41.516Z,7.54
